Time;durP1;ratioP1;P1;durP2;ratioP2;P2;SDS_P1;SDS_P2;PMS_P1;PMS_P2;Temp;Humidity;BMP_temperature;BMP_pressure;BME280_temperature;BME280_humidity;BME280_pressure;Samples;Min_cycle;Max_cycle;Signal;HPM_P1;HPM_P2
2023/08/06 00:00:05;;;;;;;;;;;;;;;;;;5073554;28;19970;-69
2023/08/06 00:02:32;;;;;;;;;;;;;;;;;;5070536;28;20507;-70
2023/08/06 00:04:59;;;;;;;;;;;;;;;;;;5077300;28;19978;-69
2023/08/06 00:07:26;;;;;;;;;;;;;;;;;;5073084;28;19928;-69
2023/08/06 00:09:53;;;;;;;;;;;;;;;;;;5073992;28;19924;-70
2023/08/06 00:12:20;;;;;;;;;;;;;;;;;;5072066;28;20341;-69
2023/08/06 00:14:47;;;;;;;;;;;;;;;;;;5071311;28;19925;-69
2023/08/06 00:17:14;;;;;;;;;;;;;;;;;;5071007;28;19924;-69
2023/08/06 00:19:41;;;;;;;;;;;;;;;;;;5073262;28;19970;-68
2023/08/06 00:22:08;;;;;;;;;;;;;;;;;;5069923;28;19925;-69
2023/08/06 00:24:35;;;;;;;;;;;;;;;;;;5073286;28;19970;-70
2023/08/06 00:27:02;;;;;;;;;;;;;;;;;;5071867;28;19970;-71
2023/08/06 00:29:29;;;;;;;;;;;;;;;;;;5070866;28;19964;-69
2023/08/06 00:31:56;;;;;;;;;;;;;;;;;;5072267;28;20420;-69
2023/08/06 00:34:23;;;;;;;;;;;;;;;;;;5071192;28;19924;-70
2023/08/06 00:36:50;;;;;;;;;;;;;;;;;;5069020;28;19929;-70
2023/08/06 00:39:18;;;;;;;;;;;;;;;;;;5068811;28;19956;-70
2023/08/06 00:41:45;;;;;;;;;;;;;;;;;;5069075;28;19959;-70
2023/08/06 00:44:12;;;;;;;;;;;;;;;;;;5060457;28;20437;-70
2023/08/06 00:46:39;;;;;;;;;;;;;;;;;;5071279;28;19925;-70
2023/08/06 00:49:06;;;;;;;;;;;;;;;;;;5070429;28;19925;-69
2023/08/06 00:51:33;;;;;;;;;;;;;;;;;;5070570;28;19932;-70
2023/08/06 00:54:00;;;;;;;;;;;;;;;;;;5071090;28;19946;-70
2023/08/06 00:56:27;;;;;;;;;;;;;;;;;;5070392;28;19938;-70
2023/08/06 00:58:54;;;;;;;;;;;;;;;;;;5071230;28;19998;-70
2023/08/06 01:01:21;;;;;;;;;;;;;;;;;;5069685;28;20045;-70
2023/08/06 01:03:48;;;;;;;;;;;;;;;;;;5069694;28;20429;-70
2023/08/06 01:06:15;;;;;;;;;;;;;;;;;;5065835;28;19925;-70
2023/08/06 01:08:42;;;;;;;;;;;;;;;;;;5069707;28;19998;-69
2023/08/06 01:11:09;;;;;;;;;;;;;;;;;;5068275;28;19932;-71
2023/08/06 01:13:36;;;;;;;;;;;;;;;;;;5072203;28;19939;-71
2023/08/06 01:16:03;;;;;;;;;;;;;;;;;;5069754;28;19924;-70
2023/08/06 01:18:30;;;;;;;;;;;;;;;;;;5068366;28;19936;-70
2023/08/06 01:20:57;;;;;;;;;;;;;;;;;;5071414;28;19924;-70
2023/08/06 01:23:24;;;;;;;;;;;;;;;;;;5068072;28;19993;-70
2023/08/06 01:25:51;;;;;;;;;;;;;;;;;;5069970;28;19924;-70
2023/08/06 01:28:18;;;;;;;;;;;;;;;;;;5072200;28;20396;-69
2023/08/06 01:30:45;;;;;;;;;;;;;;;;;;5073645;28;19924;-69
2023/08/06 01:33:12;;;;;;;;;;;;;;;;;;5066652;28;19924;-69
2023/08/06 01:35:39;;;;;;;;;;;;;;;;;;5069876;28;19924;-69
2023/08/06 01:38:06;;;;;;;;;;;;;;;;;;5069001;28;19925;-69
2023/08/06 01:40:34;;;;;;;;;;;;;;;;;;5066186;28;20421;-69
2023/08/06 01:43:01;;;;;;;;;;;;;;;;;;5070212;28;19928;-70
2023/08/06 01:45:28;;;;;;;;;;;;;;;;;;5066744;28;19924;-69
2023/08/06 01:47:55;;;;;;;;;;;;;;;;;;5072066;28;20288;-68
2023/08/06 01:50:22;;;;;;;;;;;;;;;;;;5069554;28;19924;-68
2023/08/06 01:52:49;;;;;;;;;;;;;;;;;;5069680;28;20951;-69
2023/08/06 01:55:17;;;;;;;;;;;;;;;;;;5070479;28;19925;-68
2023/08/06 01:57:45;;;;;;;;;;;;;;;;;;5069793;28;20448;-68
2023/08/06 02:00:12;;;;;;;;;;;;;;;;;;5069015;28;19928;-69
2023/08/06 02:02:40;;;;;;;;;;;;;;;;;;5070569;28;19932;-68
2023/08/06 02:05:07;;;;;;;;;;;;;;;;;;5075106;28;19977;-68
2023/08/06 02:07:34;;;;;;;;;;;;;;;;;;5070503;28;19978;-68
2023/08/06 02:10:01;;;;;;;;;;;;;;;;;;5071497;28;19924;-69
2023/08/06 02:12:28;;;;;;;;;;;;;;;;;;5074100;28;19956;-69
2023/08/06 02:14:55;;;;;;;;;;;;;;;;;;5074510;28;19925;-69
2023/08/06 02:17:22;;;;;;;;;;;;;;;;;;5074731;28;19924;-69
2023/08/06 02:19:49;;;;;;;;;;;;;;;;;;5076452;28;19928;-69
2023/08/06 02:22:16;;;;;;;;;;;;;;;;;;5072266;28;19925;-70
2023/08/06 02:24:43;;;;;;;;;;;;;;;;;;5075344;28;19924;-69
2023/08/06 02:27:10;;;;;;;;;;;;;;;;;;5074018;28;19928;-69
2023/08/06 02:29:37;;;;;;;;;;;;;;;;;;5073961;28;20353;-69
2023/08/06 02:32:04;;;;;;;;;;;;;;;;;;5074669;28;19924;-69
2023/08/06 02:34:31;;;;;;;;;;;;;;;;;;5067933;28;19925;-69
2023/08/06 02:36:58;;;;;;;;;;;;;;;;;;5072558;28;19978;-69
2023/08/06 02:39:25;;;;;;;;;;;;;;;;;;5076535;28;19931;-69
2023/08/06 02:41:52;;;;;;;;;;;;;;;;;;5073802;28;20338;-69
2023/08/06 02:44:19;;;;;;;;;;;;;;;;;;5072791;28;19928;-69
2023/08/06 02:46:46;;;;;;;;;;;;;;;;;;5073898;28;20489;-69
2023/08/06 02:49:13;;;;;;;;;;;;;;;;;;5074640;28;19932;-70
2023/08/06 02:51:40;;;;;;;;;;;;;;;;;;5071551;28;20364;-69
2023/08/06 02:54:07;;;;;;;;;;;;;;;;;;5072023;28;19981;-69
2023/08/06 02:56:34;;;;;;;;;;;;;;;;;;5073107;28;19924;-69
2023/08/06 02:59:01;;;;;;;;;;;;;;;;;;5074353;28;20002;-68
2023/08/06 03:01:28;;;;;;;;;;;;;;;;;;5075481;28;20019;-69
2023/08/06 03:03:55;;;;;;;;;;;;;;;;;;5073888;28;19928;-69
2023/08/06 03:06:22;;;;;;;;;;;;;;;;;;5072223;28;20345;-69
2023/08/06 03:08:52;;;;;;;;;;;;;;;;;;5071146;28;19929;-69
2023/08/06 03:11:19;;;;;;;;;;;;;;;;;;5059954;28;19936;-69
2023/08/06 03:13:46;;;;;;;;;;;;;;;;;;5071852;28;19925;-70
2023/08/06 03:16:13;;;;;;;;;;;;;;;;;;5070397;28;20517;-69
2023/08/06 03:18:40;;;;;;;;;;;;;;;;;;5074661;28;19931;-69
2023/08/06 03:21:07;;;;;;;;;;;;;;;;;;5075145;28;19924;-69
2023/08/06 03:23:34;;;;;;;;;;;;;;;;;;5071292;28;20032;-69
2023/08/06 03:26:01;;;;;;;;;;;;;;;;;;5074003;28;19978;-70
2023/08/06 03:28:28;;;;;;;;;;;;;;;;;;5070674;28;19925;-69
2023/08/06 03:30:55;;;;;;;;;;;;;;;;;;5078009;28;19928;-69
2023/08/06 03:33:22;;;;;;;;;;;;;;;;;;5074400;28;19951;-70
2023/08/06 03:35:49;;;;;;;;;;;;;;;;;;5073882;28;19924;-69
2023/08/06 03:38:16;;;;;;;;;;;;;;;;;;5071168;28;19924;-70
2023/08/06 03:40:44;;;;;;;;;;;;;;;;;;5071212;28;19925;-70
2023/08/06 03:43:11;;;;;;;;;;;;;;;;;;5070689;28;19972;-70
2023/08/06 03:45:38;;;;;;;;;;;;;;;;;;5069697;28;19924;-70
2023/08/06 03:48:05;;;;;;;;;;;;;;;;;;5068342;28;19924;-69
2023/08/06 03:50:32;;;;;;;;;;;;;;;;;;5072214;28;19972;-70
2023/08/06 03:52:59;;;;;;;;;;;;;;;;;;5072955;28;19932;-69
2023/08/06 03:55:26;;;;;;;;;;;;;;;;;;5071877;28;19978;-69
2023/08/06 03:57:53;;;;;;;;;;;;;;;;;;5072610;28;19985;-70
2023/08/06 04:00:20;;;;;;;;;;;;;;;;;;5071366;28;20432;-71
2023/08/06 04:02:47;;;;;;;;;;;;;;;;;;5069844;28;19932;-70
2023/08/06 04:05:15;;;;;;;;;;;;;;;;;;5071733;28;19926;-70
2023/08/06 04:07:42;;;;;;;;;;;;;;;;;;5071216;28;20011;-71
2023/08/06 04:10:10;;;;;;;;;;;;;;;;;;5073353;28;19932;-70
2023/08/06 04:12:39;;;;;;;;;;;;;;;;;;5074166;28;19924;-70
2023/08/06 04:15:06;;;;;;;;;;;;;;;;;;5074440;28;19925;-70
2023/08/06 04:17:33;;;;;;;;;;;;;;;;;;5071731;28;19924;-70
2023/08/06 04:20:00;;;;;;;;;;;;;;;;;;5071479;28;19994;-70
2023/08/06 04:22:27;;;;;;;;;;;;;;;;;;5065265;28;19924;-69
2023/08/06 04:24:54;;;;;;;;;;;;;;;;;;5072925;28;19930;-69
2023/08/06 04:27:22;;;;;;;;;;;;;;;;;;5077677;28;20019;-69
2023/08/06 04:29:49;;;;;;;;;;;;;;;;;;5083074;28;19968;-69
2023/08/06 04:32:17;;;;;;;;;;;;;;;;;;5070120;28;19925;-69
2023/08/06 04:34:44;;;;;;;;;;;;;;;;;;5072674;28;19924;-69
2023/08/06 04:37:11;;;;;;;;;;;;;;;;;;5071541;28;19935;-69
2023/08/06 04:39:40;;;;;;;;;;;;;;;;;;5069024;28;19928;-70
2023/08/06 04:42:07;;;;;;;;;;;;;;;;;;5069851;28;19932;-69
2023/08/06 04:44:34;;;;;;;;;;;;;;;;;;5070682;28;19928;-68
2023/08/06 04:47:01;;;;;;;;;;;;;;;;;;5060033;28;19924;-69
2023/08/06 04:49:28;;;;;;;;;;;;;;;;;;5071179;28;19928;-68
2023/08/06 04:51:55;;;;;;;;;;;;;;;;;;5070402;28;19929;-68
2023/08/06 04:54:22;;;;;;;;;;;;;;;;;;5072669;28;19970;-69
2023/08/06 04:56:49;;;;;;;;;;;;;;;;;;5072254;28;20481;-68
2023/08/06 04:59:16;;;;;;;;;;;;;;;;;;5068028;28;19989;-68
2023/08/06 05:01:43;;;;;;;;;;;;;;;;;;5070099;28;19924;-68
2023/08/06 05:04:10;;;;;;;;;;;;;;;;;;5069617;28;20387;-68
2023/08/06 05:06:40;;;;;;;;;;;;;;;;;;5071378;28;19925;-68
2023/08/06 05:09:07;;;;;;;;;;;;;;;;;;5070888;28;19924;-68
2023/08/06 05:11:34;;;;;;;;;;;;;;;;;;5073134;28;19977;-68
2023/08/06 05:14:01;;;;;;;;;;;;;;;;;;5072107;28;19969;-69
2023/08/06 05:16:28;;;;;;;;;;;;;;;;;;5067484;28;20023;-68
2023/08/06 05:18:55;;;;;;;;;;;;;;;;;;5070332;28;19928;-68
2023/08/06 05:21:22;;;;;;;;;;;;;;;;;;5068019;28;19998;-69
2023/08/06 05:23:49;;;;;;;;;;;;;;;;;;5063978;28;19929;-68
2023/08/06 05:26:18;;;;;;;;;;;;;;;;;;5068188;28;19933;-69
2023/08/06 05:28:45;;;;;;;;;;;;;;;;;;5065892;28;19932;-70
2023/08/06 05:31:12;;;;;;;;;;;;;;;;;;5071568;28;19931;-69
2023/08/06 05:33:39;;;;;;;;;;;;;;;;;;5072042;28;19931;-69
2023/08/06 05:36:06;;;;;;;;;;;;;;;;;;5069442;28;19925;-70
2023/08/06 05:38:33;;;;;;;;;;;;;;;;;;5066488;28;19924;-69
2023/08/06 05:41:00;;;;;;;;;;;;;;;;;;5069773;28;19977;-69
2023/08/06 05:43:27;;;;;;;;;;;;;;;;;;5068371;28;20395;-69
2023/08/06 05:45:54;;;;;;;;;;;;;;;;;;5060156;28;19932;-69
2023/08/06 05:48:22;;;;;;;;;;;;;;;;;;5066481;28;20388;-69
2023/08/06 05:50:49;;;;;;;;;;;;;;;;;;5061514;28;20423;-69
2023/08/06 05:53:16;;;;;;;;;;;;;;;;;;5055011;28;19925;-69
2023/08/06 05:55:43;;;;;;;;;;;;;;;;;;5060313;28;20003;-69
2023/08/06 05:58:10;;;;;;;;;;;;;;;;;;5056230;28;19929;-69
2023/08/06 06:00:37;;;;;;;;;;;;;;;;;;5053117;28;19986;-69
2023/08/06 06:03:04;;;;;;;;;;;;;;;;;;5059659;28;19979;-69
2023/08/06 06:05:31;;;;;;;;;;;;;;;;;;5067864;28;19974;-68
2023/08/06 06:07:58;;;;;;;;;;;;;;;;;;5075620;28;19953;-69
2023/08/06 06:10:25;;;;;;;;;;;;;;;;;;5066293;28;19932;-68
2023/08/06 06:12:52;;;;;;;;;;;;;;;;;;5065288;28;19928;-70
2023/08/06 06:15:19;;;;;;;;;;;;;;;;;;5072841;28;19925;-69
2023/08/06 06:17:46;;;;;;;;;;;;;;;;;;5072337;28;19924;-69
2023/08/06 06:20:13;;;;;;;;;;;;;;;;;;5072355;28;19925;-69
2023/08/06 06:22:40;;;;;;;;;;;;;;;;;;5071355;28;19986;-69
2023/08/06 06:25:07;;;;;;;;;;;;;;;;;;5071160;28;19978;-69
2023/08/06 06:27:34;;;;;;;;;;;;;;;;;;5072440;28;19924;-69
2023/08/06 06:30:01;;;;;;;;;;;;;;;;;;5072229;28;19970;-69
2023/08/06 06:32:28;;;;;;;;;;;;;;;;;;5071322;28;19924;-69
2023/08/06 06:34:55;;;;;;;;;;;;;;;;;;5072350;28;19924;-69
2023/08/06 06:37:22;;;;;;;;;;;;;;;;;;5072141;28;20020;-69
2023/08/06 06:39:49;;;;;;;;;;;;;;;;;;5070231;28;19928;-69
2023/08/06 06:42:16;;;;;;;;;;;;;;;;;;5071581;28;19925;-69
2023/08/06 06:44:43;;;;;;;;;;;;;;;;;;5071554;28;19978;-69
2023/08/06 06:47:10;;;;;;;;;;;;;;;;;;5071786;28;19932;-69
2023/08/06 06:49:37;;;;;;;;;;;;;;;;;;5070718;28;20449;-69
2023/08/06 06:52:04;;;;;;;;;;;;;;;;;;5072139;28;19924;-69
2023/08/06 06:54:31;;;;;;;;;;;;;;;;;;5070720;28;19925;-69
2023/08/06 06:56:58;;;;;;;;;;;;;;;;;;5071651;28;20268;-69
2023/08/06 06:59:25;;;;;;;;;;;;;;;;;;5074206;28;19924;-69
2023/08/06 07:01:52;;;;;;;;;;;;;;;;;;5075153;28;19970;-69
2023/08/06 07:04:19;;;;;;;;;;;;;;;;;;5074364;28;19978;-69
2023/08/06 07:06:46;;;;;;;;;;;;;;;;;;5074201;28;19928;-69
2023/08/06 07:09:13;;;;;;;;;;;;;;;;;;5074518;28;19929;-69
2023/08/06 07:11:43;;;;;;;;;;;;;;;;;;5075307;28;19925;-69
2023/08/06 07:14:10;;;;;;;;;;;;;;;;;;5075506;28;20311;-68
2023/08/06 07:16:37;;;;;;;;;;;;;;;;;;5074580;28;19931;-69
2023/08/06 07:19:05;;;;;;;;;;;;;;;;;;5075713;28;19924;-69
2023/08/06 07:21:32;;;;;;;;;;;;;;;;;;5075287;28;20014;-68
2023/08/06 07:24:00;;;;;;;;;;;;;;;;;;5075312;28;19959;-69
2023/08/06 07:26:27;;;;;;;;;;;;;;;;;;5074581;28;20079;-69
2023/08/06 07:28:54;;;;;;;;;;;;;;;;;;5075446;28;19928;-69
2023/08/06 07:31:21;;;;;;;;;;;;;;;;;;5075079;28;19924;-68
2023/08/06 07:33:48;;;;;;;;;;;;;;;;;;5074138;28;19928;-69
2023/08/06 07:36:15;;;;;;;;;;;;;;;;;;5074700;28;19986;-69
2023/08/06 07:38:42;;;;;;;;;;;;;;;;;;5074548;28;19928;-69
2023/08/06 07:41:09;;;;;;;;;;;;;;;;;;5073103;28;19972;-69
2023/08/06 07:43:36;;;;;;;;;;;;;;;;;;5074846;28;19936;-69
2023/08/06 07:46:03;;;;;;;;;;;;;;;;;;5074559;28;20387;-69
2023/08/06 07:48:30;;;;;;;;;;;;;;;;;;5074995;28;20001;-69
2023/08/06 07:50:57;;;;;;;;;;;;;;;;;;5072681;28;19976;-69
2023/08/06 07:53:26;;;;;;;;;;;;;;;;;;5074331;28;19939;-69
2023/08/06 07:55:53;;;;;;;;;;;;;;;;;;5073116;28;19968;-69
2023/08/06 07:58:20;;;;;;;;;;;;;;;;;;5074460;28;19929;-69
2023/08/06 08:00:47;;;;;;;;;;;;;;;;;;5072383;28;19974;-69
2023/08/06 08:03:14;;;;;;;;;;;;;;;;;;5074393;28;20311;-70
2023/08/06 08:05:41;;;;;;;;;;;;;;;;;;5074484;28;19964;-69
2023/08/06 08:08:08;;;;;;;;;;;;;;;;;;5072489;28;19993;-69
2023/08/06 08:10:36;;;;;;;;;;;;;;;;;;5071352;28;19932;-69
2023/08/06 08:13:04;;;;;;;;;;;;;;;;;;5070014;28;21127;-69
2023/08/06 08:15:31;;;;;;;;;;;;;;;;;;5060364;28;20350;-69
2023/08/06 08:17:58;;;;;;;;;;;;;;;;;;5053742;28;19925;-69
2023/08/06 08:20:26;;;;;;;;;;;;;;;;;;5072387;28;19928;-69
2023/08/06 08:22:53;;;;;;;;;;;;;;;;;;5072979;28;19924;-69
2023/08/06 08:25:20;;;;;;;;;;;;;;;;;;5075626;28;19979;-69
2023/08/06 08:27:47;;;;;;;;;;;;;;;;;;5075538;28;19999;-69
2023/08/06 08:30:14;;;;;;;;;;;;;;;;;;5073778;28;20406;-69
2023/08/06 08:32:41;;;;;;;;;;;;;;;;;;5073845;28;19943;-69
2023/08/06 08:35:08;;;;;;;;;;;;;;;;;;5071208;28;19975;-70
2023/08/06 08:37:36;;;;;;;;;;;;;;;;;;5074253;28;19924;-69
2023/08/06 08:40:03;;;;;;;;;;;;;;;;;;5072930;28;19932;-70
2023/08/06 08:42:30;;;;;;;;;;;;;;;;;;5067622;28;19928;-71
2023/08/06 08:44:57;;;;;;;;;;;;;;;;;;5072828;28;20011;-70
2023/08/06 08:47:24;;;;;;;;;;;;;;;;;;5073729;28;19975;-69
2023/08/06 08:49:51;;;;;;;;;;;;;;;;;;5073902;28;19925;-69
2023/08/06 08:52:18;;;;;;;;;;;;;;;;;;5071985;28;19967;-70
2023/08/06 08:54:45;;;;;;;;;;;;;;;;;;5073112;28;19925;-70
2023/08/06 08:57:12;;;;;;;;;;;;;;;;;;5073375;28;20456;-70
2023/08/06 08:59:40;;;;;;;;;;;;;;;;;;5073718;28;19986;-70
2023/08/06 09:02:07;;;;;;;;;;;;;;;;;;5071725;28;19986;-70
2023/08/06 09:04:35;;;;;;;;;;;;;;;;;;5073359;28;19950;-69
2023/08/06 09:07:02;;;;;;;;;;;;;;;;;;5073133;28;19925;-70
2023/08/06 09:09:29;;;;;;;;;;;;;;;;;;5072228;28;19995;-70
2023/08/06 09:11:56;;;;;;;;;;;;;;;;;;5072967;28;20355;-70
2023/08/06 09:14:23;;;;;;;;;;;;;;;;;;5073295;28;19979;-70
2023/08/06 09:16:50;;;;;;;;;;;;;;;;;;5073130;28;19928;-70
2023/08/06 09:19:17;;;;;;;;;;;;;;;;;;5071240;28;19930;-70
2023/08/06 09:21:44;;;;;;;;;;;;;;;;;;5073054;28;19931;-69
2023/08/06 09:24:11;;;;;;;;;;;;;;;;;;5071706;28;19928;-71
2023/08/06 09:26:39;;;;;;;;;;;;;;;;;;5072352;28;19981;-70
2023/08/06 09:29:06;;;;;;;;;;;;;;;;;;5071571;28;19931;-71
2023/08/06 09:31:33;;;;;;;;;;;;;;;;;;5072991;28;19925;-68
2023/08/06 09:34:00;;;;;;;;;;;;;;;;;;5072300;28;19924;-68
2023/08/06 09:36:27;;;;;;;;;;;;;;;;;;5060824;28;20376;-68
2023/08/06 09:38:54;;;;;;;;;;;;;;;;;;5062675;28;19924;-69
2023/08/06 09:41:21;;;;;;;;;;;;;;;;;;5072650;28;19928;-68
2023/08/06 09:43:48;;;;;;;;;;;;;;;;;;5067336;28;19932;-68
2023/08/06 09:46:16;;;;;;;;;;;;;;;;;;5072034;28;20264;-68
2023/08/06 09:48:43;;;;;;;;;;;;;;;;;;5072109;28;20319;-69
2023/08/06 09:51:10;;;;;;;;;;;;;;;;;;5072143;28;20379;-69
2023/08/06 09:53:37;;;;;;;;;;;;;;;;;;5071811;28;19960;-69
2023/08/06 09:56:04;;;;;;;;;;;;;;;;;;5072348;28;19969;-69
2023/08/06 09:58:31;;;;;;;;;;;;;;;;;;5071053;28;19929;-68
2023/08/06 10:00:58;;;;;;;;;;;;;;;;;;5072267;28;20313;-69
2023/08/06 10:03:25;;;;;;;;;;;;;;;;;;5072366;28;19924;-68
2023/08/06 10:05:52;;;;;;;;;;;;;;;;;;5072523;28;19928;-69
2023/08/06 10:08:19;;;;;;;;;;;;;;;;;;5070513;28;20407;-68
2023/08/06 10:10:46;;;;;;;;;;;;;;;;;;5072344;28;19928;-69
2023/08/06 10:13:13;;;;;;;;;;;;;;;;;;5072428;28;19925;-68
2023/08/06 10:15:40;;;;;;;;;;;;;;;;;;5072395;28;19928;-69
2023/08/06 10:18:07;;;;;;;;;;;;;;;;;;5072044;28;20356;-68
2023/08/06 10:20:34;;;;;;;;;;;;;;;;;;5072032;28;19925;-68
2023/08/06 10:23:01;;;;;;;;;;;;;;;;;;5071329;28;19937;-68
2023/08/06 10:25:28;;;;;;;;;;;;;;;;;;5072005;28;19925;-68
2023/08/06 10:27:56;;;;;;;;;;;;;;;;;;5071510;28;19928;-68
2023/08/06 10:30:23;;;;;;;;;;;;;;;;;;5069801;28;20284;-68
2023/08/06 10:32:50;;;;;;;;;;;;;;;;;;5064650;28;19928;-68
2023/08/06 10:35:17;;;;;;;;;;;;;;;;;;5064606;28;19925;-68
2023/08/06 10:37:44;;;;;;;;;;;;;;;;;;5075470;28;19988;-68
2023/08/06 10:40:11;;;;;;;;;;;;;;;;;;5076383;28;19929;-68
2023/08/06 10:42:38;;;;;;;;;;;;;;;;;;5075062;28;19924;-67
2023/08/06 10:45:05;;;;;;;;;;;;;;;;;;5070189;28;19933;-68
2023/08/06 10:47:32;;;;;;;;;;;;;;;;;;5075867;28;20006;-67
2023/08/06 10:49:59;;;;;;;;;;;;;;;;;;5075922;28;19925;-68
2023/08/06 10:52:26;;;;;;;;;;;;;;;;;;5076202;28;20373;-68
2023/08/06 10:54:53;;;;;;;;;;;;;;;;;;5074186;28;19962;-68
2023/08/06 10:57:20;;;;;;;;;;;;;;;;;;5075530;28;19958;-68
2023/08/06 10:59:47;;;;;;;;;;;;;;;;;;5075772;28;19946;-67
2023/08/06 11:02:14;;;;;;;;;;;;;;;;;;5075405;28;19924;-68
2023/08/06 11:04:41;;;;;;;;;;;;;;;;;;5074377;28;19928;-68
2023/08/06 11:07:08;;;;;;;;;;;;;;;;;;5076383;28;19947;-68
2023/08/06 11:09:35;;;;;;;;;;;;;;;;;;5073878;28;19931;-68
2023/08/06 11:12:02;;;;;;;;;;;;;;;;;;5075380;28;19925;-68
2023/08/06 11:14:29;;;;;;;;;;;;;;;;;;5074334;28;19929;-68
2023/08/06 11:16:56;;;;;;;;;;;;;;;;;;5075065;28;20383;-69
2023/08/06 11:19:24;;;;;;;;;;;;;;;;;;5075545;28;19925;-67
2023/08/06 11:21:51;;;;;;;;;;;;;;;;;;5075299;28;20455;-68
2023/08/06 11:24:18;;;;;;;;;;;;;;;;;;5073630;28;19930;-68
2023/08/06 11:26:45;;;;;;;;;;;;;;;;;;5073137;28;19925;-68
2023/08/06 11:29:12;;;;;;;;;;;;;;;;;;5075293;28;19928;-68
2023/08/06 11:31:39;;;;;;;;;;;;;;;;;;5074720;28;19947;-69
2023/08/06 11:34:06;;;;;;;;;;;;;;;;;;5074108;28;20349;-70
2023/08/06 11:36:33;;;;;;;;;;;;;;;;;;5074641;28;19931;-69
2023/08/06 11:39:00;;;;;;;;;;;;;;;;;;5073901;28;20259;-69
2023/08/06 11:41:27;;;;;;;;;;;;;;;;;;5074757;28;19924;-70
2023/08/06 11:43:54;;;;;;;;;;;;;;;;;;5073258;28;19978;-69
2023/08/06 11:46:22;;;;;;;;;;;;;;;;;;5074876;28;19978;-70
2023/08/06 11:48:50;;;;;;;;;;;;;;;;;;5074943;28;20010;-70
2023/08/06 11:51:17;;;;;;;;;;;;;;;;;;5075036;28;20402;-70
2023/08/06 11:53:44;;;;;;;;;;;;;;;;;;5073568;28;19925;-69
2023/08/06 11:56:11;;;;;;;;;;;;;;;;;;5074761;28;19936;-69
2023/08/06 11:58:38;;;;;;;;;;;;;;;;;;5074605;28;19924;-69
2023/08/06 12:01:05;;;;;;;;;;;;;;;;;;5074399;28;20399;-70
2023/08/06 12:03:32;;;;;;;;;;;;;;;;;;5068477;28;19929;-68
2023/08/06 12:05:59;;;;;;;;;;;;;;;;;;5074334;28;19971;-69
2023/08/06 12:08:26;;;;;;;;;;;;;;;;;;5073450;28;19925;-70
2023/08/06 12:10:54;;;;;;;;;;;;;;;;;;5074348;28;19924;-70
2023/08/06 12:13:21;;;;;;;;;;;;;;;;;;5073445;28;20018;-70
2023/08/06 12:15:48;;;;;;;;;;;;;;;;;;5074209;28;19924;-70
2023/08/06 12:18:15;;;;;;;;;;;;;;;;;;5074434;28;19931;-69
2023/08/06 12:20:42;;;;;;;;;;;;;;;;;;5074607;28;19968;-69
2023/08/06 12:23:09;;;;;;;;;;;;;;;;;;5074063;28;19936;-70
2023/08/06 12:25:37;;;;;;;;;;;;;;;;;;5068743;28;19925;-70
2023/08/06 12:28:05;;;;;;;;;;;;;;;;;;5054039;28;20375;-71
2023/08/06 12:30:32;;;;;;;;;;;;;;;;;;5054247;28;19924;-71
2023/08/06 12:32:59;;;;;;;;;;;;;;;;;;5053955;28;19942;-69
2023/08/06 12:35:26;;;;;;;;;;;;;;;;;;5073513;28;20407;-69
2023/08/06 12:37:54;;;;;;;;;;;;;;;;;;5074053;28;19985;-69
2023/08/06 12:40:21;;;;;;;;;;;;;;;;;;5072619;28;20003;-70
2023/08/06 12:42:48;;;;;;;;;;;;;;;;;;5073726;28;19924;-70
2023/08/06 12:45:15;;;;;;;;;;;;;;;;;;5072959;28;19968;-70
2023/08/06 12:47:42;;;;;;;;;;;;;;;;;;5073619;28;19924;-70
2023/08/06 12:50:09;;;;;;;;;;;;;;;;;;5073353;28;19925;-70
2023/08/06 12:52:37;;;;;;;;;;;;;;;;;;5071513;28;19928;-70
2023/08/06 12:55:04;;;;;;;;;;;;;;;;;;5071890;28;19925;-70
2023/08/06 12:57:31;;;;;;;;;;;;;;;;;;5072744;28;19928;-69
2023/08/06 12:59:58;;;;;;;;;;;;;;;;;;5065338;28;20005;-70
2023/08/06 13:02:29;;;;;;;;;;;;;;;;;;5053056;28;19937;-70
2023/08/06 13:04:58;;;;;;;;;;;;;;;;;;5052811;28;20396;-70
2023/08/06 13:07:25;;;;;;;;;;;;;;;;;;5053427;28;19925;-69
2023/08/06 13:09:52;;;;;;;;;;;;;;;;;;5070428;28;19925;-70
2023/08/06 13:12:22;;;;;;;;;;;;;;;;;;5072875;28;20379;-69
2023/08/06 13:14:49;;;;;;;;;;;;;;;;;;5073077;28;20398;-71
2023/08/06 13:17:16;;;;;;;;;;;;;;;;;;5073309;28;20031;-70
2023/08/06 13:19:44;;;;;;;;;;;;;;;;;;5072183;28;19928;-69
2023/08/06 13:22:11;;;;;;;;;;;;;;;;;;5073104;28;19932;-69
2023/08/06 13:24:38;;;;;;;;;;;;;;;;;;5071983;28;19955;-70
2023/08/06 13:27:06;;;;;;;;;;;;;;;;;;5073171;28;19932;-70
2023/08/06 13:29:33;;;;;;;;;;;;;;;;;;5071967;28;20391;-70
2023/08/06 13:32:00;;;;;;;;;;;;;;;;;;5072903;28;19928;-70
2023/08/06 13:34:27;;;;;;;;;;;;;;;;;;5072555;28;20334;-69
2023/08/06 13:36:54;;;;;;;;;;;;;;;;;;5071420;28;20303;-70
2023/08/06 13:39:21;;;;;;;;;;;;;;;;;;5071602;28;19925;-71
2023/08/06 13:41:48;;;;;;;;;;;;;;;;;;5070011;28;20346;-71
2023/08/06 13:44:15;;;;;;;;;;;;;;;;;;5072177;28;20497;-70
2023/08/06 13:46:42;;;;;;;;;;;;;;;;;;5072184;28;20308;-71
2023/08/06 13:49:09;;;;;;;;;;;;;;;;;;5070822;28;19924;-72
2023/08/06 13:51:38;;;;;;;;;;;;;;;;;;5079173;28;19925;-70
2023/08/06 13:54:05;;;;;;;;;;;;;;;;;;5071586;28;19929;-69
2023/08/06 13:56:32;;;;;;;;;;;;;;;;;;5072754;28;19936;-71
2023/08/06 13:58:59;;;;;;;;;;;;;;;;;;5071509;28;19924;-70
2023/08/06 14:01:26;;;;;;;;;;;;;;;;;;5072674;28;19930;-70
2023/08/06 14:03:54;;;;;;;;;;;;;;;;;;5072323;28;19928;-69
2023/08/06 14:06:21;;;;;;;;;;;;;;;;;;5072707;28;19976;-70
2023/08/06 14:08:48;;;;;;;;;;;;;;;;;;5070979;28;21364;-71
2023/08/06 14:11:15;;;;;;;;;;;;;;;;;;5072338;28;19994;-70
2023/08/06 14:13:45;;;;;;;;;;;;;;;;;;5072042;28;19960;-70
2023/08/06 14:16:12;;;;;;;;;;;;;;;;;;5064676;28;20022;-72
2023/08/06 14:18:41;;;;;;;;;;;;;;;;;;5059249;28;19924;-72
2023/08/06 14:21:08;;;;;;;;;;;;;;;;;;5062445;28;19924;-72
2023/08/06 14:23:35;;;;;;;;;;;;;;;;;;5067766;28;19931;-72
2023/08/06 14:26:02;;;;;;;;;;;;;;;;;;5068721;28;19928;-71
2023/08/06 14:28:29;;;;;;;;;;;;;;;;;;5067699;28;20019;-72
2023/08/06 14:30:56;;;;;;;;;;;;;;;;;;5066130;28;19925;-72
2023/08/06 14:33:23;;;;;;;;;;;;;;;;;;5063514;28;19929;-70
2023/08/06 14:35:50;;;;;;;;;;;;;;;;;;5070634;28;19986;-72
2023/08/06 14:38:17;;;;;;;;;;;;;;;;;;5070731;28;19924;-72
2023/08/06 14:40:44;;;;;;;;;;;;;;;;;;5069422;28;19932;-74
2023/08/06 14:43:12;;;;;;;;;;;;;;;;;;5069306;28;19932;-72
2023/08/06 14:45:39;;;;;;;;;;;;;;;;;;5061700;28;20375;-72
2023/08/06 14:48:06;;;;;;;;;;;;;;;;;;5067336;28;20394;-72
2023/08/06 14:50:33;;;;;;;;;;;;;;;;;;5059886;28;19924;-72
2023/08/06 14:53:02;;;;;;;;;;;;;;;;;;5066748;28;19925;-72
2023/08/06 14:55:28;;;;;;;;;;;;;;;;;;5070416;28;19932;-71
2023/08/06 14:57:56;;;;;;;;;;;;;;;;;;5066528;28;19924;-72
2023/08/06 15:00:23;;;;;;;;;;;;;;;;;;5069816;28;19929;-71
2023/08/06 15:02:50;;;;;;;;;;;;;;;;;;5070007;28;19924;-71
2023/08/06 15:05:17;;;;;;;;;;;;;;;;;;5068576;28;20000;-71
2023/08/06 15:07:44;;;;;;;;;;;;;;;;;;5069388;28;19924;-71
2023/08/06 15:10:11;;;;;;;;;;;;;;;;;;5069676;28;19929;-71
2023/08/06 15:12:39;;;;;;;;;;;;;;;;;;5067497;28;19928;-73
2023/08/06 15:15:06;;;;;;;;;;;;;;;;;;5067575;28;19978;-72
2023/08/06 15:17:33;;;;;;;;;;;;;;;;;;5070353;28;19932;-71
2023/08/06 15:20:00;;;;;;;;;;;;;;;;;;5072181;28;20021;-72
2023/08/06 15:22:27;;;;;;;;;;;;;;;;;;5070773;28;20401;-72
2023/08/06 15:24:54;;;;;;;;;;;;;;;;;;5070935;28;19924;-71
2023/08/06 15:27:21;;;;;;;;;;;;;;;;;;5074058;28;19943;-76
2023/08/06 15:29:48;;;;;;;;;;;;;;;;;;5073661;28;19924;-71
2023/08/06 15:32:15;;;;;;;;;;;;;;;;;;5068610;28;19924;-72
2023/08/06 15:34:42;;;;;;;;;;;;;;;;;;5071780;28;19929;-70
2023/08/06 15:37:10;;;;;;;;;;;;;;;;;;5071156;28;19932;-71
2023/08/06 15:39:37;;;;;;;;;;;;;;;;;;5067475;28;19935;-71
2023/08/06 15:42:04;;;;;;;;;;;;;;;;;;5072736;28;19931;-72
2023/08/06 15:44:31;;;;;;;;;;;;;;;;;;5067113;28;19986;-72
2023/08/06 15:46:58;;;;;;;;;;;;;;;;;;5069421;28;20425;-72
2023/08/06 15:49:25;;;;;;;;;;;;;;;;;;5070289;28;19925;-72
2023/08/06 15:51:53;;;;;;;;;;;;;;;;;;5066231;28;19936;-71
2023/08/06 15:54:20;;;;;;;;;;;;;;;;;;5066166;28;19928;-71
2023/08/06 15:56:47;;;;;;;;;;;;;;;;;;5053108;28;20342;-71
2023/08/06 15:59:14;;;;;;;;;;;;;;;;;;5069103;28;19924;-72
2023/08/06 16:01:41;;;;;;;;;;;;;;;;;;5069675;28;19952;-72
2023/08/06 16:04:08;;;;;;;;;;;;;;;;;;5070159;28;19995;-70
2023/08/06 16:06:35;;;;;;;;;;;;;;;;;;5065611;28;19925;-71
2023/08/06 16:09:02;;;;;;;;;;;;;;;;;;5070261;28;19925;-71
2023/08/06 16:11:29;;;;;;;;;;;;;;;;;;5067959;28;19938;-71
2023/08/06 16:13:56;;;;;;;;;;;;;;;;;;5068338;28;19924;-69
2023/08/06 16:16:24;;;;;;;;;;;;;;;;;;5070213;28;20349;-70
2023/08/06 16:18:51;;;;;;;;;;;;;;;;;;5056915;28;19925;-72
2023/08/06 16:21:18;;;;;;;;;;;;;;;;;;5063891;28;20368;-71
2023/08/06 16:23:45;;;;;;;;;;;;;;;;;;5103317;22;19923;-71
2023/08/06 16:26:12;;;;;;;;;;;;;;;;;;5106665;28;19969;-71
2023/08/06 16:28:40;;;;;;;;;;;;;;;;;;5103571;28;19928;-71
2023/08/06 16:31:10;;;;;;;;;;;;;;;;;;5103984;28;20033;-69
2023/08/06 16:33:37;;;;;;;;;;;;;;;;;;5103514;28;19924;-69
2023/08/06 16:36:04;;;;;;;;;;;;;;;;;;5110753;28;19924;-69
2023/08/06 16:38:31;;;;;;;;;;;;;;;;;;5105872;28;19928;-68
2023/08/06 16:41:00;;;;;;;;;;;;;;;;;;5097226;28;19927;-68
2023/08/06 16:43:27;;;;;;;;;;;;;;;;;;5108333;28;19924;-68